createdAt,value
2018-05-18T00:01:44.128Z,12.41
2018-05-18T00:04:47.552Z,12.39
2018-05-18T00:07:50.861Z,12.36
2018-05-18T00:10:54.182Z,12.34
2018-05-18T00:13:57.490Z,12.31
2018-05-18T00:17:00.806Z,12.25
2018-05-18T00:20:04.888Z,12.20
2018-05-18T00:23:08.190Z,12.13
2018-05-18T00:26:11.513Z,12.08
2018-05-18T00:29:15.580Z,12.10
2018-05-18T00:32:18.897Z,12.08
2018-05-18T00:35:22.205Z,12.04
2018-05-18T00:38:26.284Z,12.01
2018-05-18T00:41:29.593Z,11.96
2018-05-18T00:44:32.921Z,11.95
2018-05-18T00:47:36.989Z,11.90
2018-05-18T00:50:40.317Z,11.85
2018-05-18T00:53:43.617Z,11.82
2018-05-18T00:56:47.715Z,11.79
2018-05-18T00:59:51.017Z,11.76
2018-05-18T01:02:54.325Z,11.76
2018-05-18T01:05:58.406Z,11.76
2018-05-18T01:09:01.711Z,11.70
2018-05-18T01:12:05.026Z,11.64
2018-05-18T01:15:08.329Z,11.64
2018-05-18T01:18:12.430Z,11.63
2018-05-18T01:21:15.728Z,11.62
2018-05-18T01:24:19.040Z,11.57
2018-05-18T01:27:22.345Z,11.55
2018-05-18T01:30:26.505Z,11.51
2018-05-18T01:33:29.738Z,11.44
2018-05-18T01:36:33.062Z,11.39
2018-05-18T01:39:36.370Z,11.36
2018-05-18T01:42:39.680Z,11.36
2018-05-18T01:45:42.976Z,11.34
2018-05-18T01:48:46.298Z,11.33
2018-05-18T01:51:49.614Z,11.29
2018-05-18T01:54:52.925Z,11.25
2018-05-18T01:57:56.997Z,11.22
2018-05-18T02:01:00.326Z,11.17
2018-05-18T02:04:03.634Z,11.17
2018-05-18T02:07:07.720Z,11.14
2018-05-18T02:10:11.021Z,11.12
2018-05-18T02:13:14.338Z,11.11
2018-05-18T02:16:18.405Z,11.05
2018-05-18T02:19:21.713Z,11.03
2018-05-18T02:22:25.013Z,11.03
2018-05-18T02:25:28.334Z,11.01
2018-05-18T02:28:31.633Z,11.02
2018-05-18T02:31:35.722Z,11.01
2018-05-18T02:34:39.033Z,11.04
2018-05-18T02:37:42.359Z,11.07
2018-05-18T02:40:45.657Z,11.09
2018-05-18T02:43:48.974Z,11.14
2018-05-18T02:46:52.277Z,11.20
2018-05-18T02:49:55.604Z,11.19
2018-05-18T02:52:58.913Z,11.22
2018-05-18T02:56:03.037Z,11.25
2018-05-18T02:59:07.107Z,11.25
2018-05-18T03:02:10.421Z,11.23
2018-05-18T03:05:13.729Z,11.20
2018-05-18T03:08:17.045Z,11.19
2018-05-18T03:11:21.127Z,11.16
2018-05-18T03:14:24.458Z,11.10
2018-05-18T03:17:28.534Z,11.07
2018-05-18T03:20:31.861Z,11.04
2018-05-18T03:23:35.174Z,11.01
2018-05-18T03:26:38.504Z,11.03
2018-05-18T03:29:41.813Z,11.01
2018-05-18T03:32:45.126Z,11.00
2018-05-18T03:35:48.433Z,10.95
2018-05-18T03:38:51.749Z,10.94
2018-05-18T03:41:55.832Z,10.90
2018-05-18T03:44:59.124Z,10.86
2018-05-18T03:48:02.427Z,10.77
2018-05-18T03:51:05.726Z,10.71
2018-05-18T03:54:09.062Z,10.62
2018-05-18T03:57:12.357Z,10.57
2018-05-18T04:00:15.668Z,10.56
2018-05-18T04:03:36.805Z,10.53
2018-05-18T04:06:57.720Z,10.50
2018-05-18T04:10:01.033Z,10.47
2018-05-18T04:13:04.345Z,10.48
2018-05-18T04:16:07.652Z,10.52
2018-05-18T04:19:11.717Z,10.54
2018-05-18T04:22:15.024Z,10.58
2018-05-18T04:25:18.328Z,10.62
2018-05-18T04:28:21.637Z,10.69
2018-05-18T04:31:24.948Z,10.71
2018-05-18T04:34:29.013Z,10.76
2018-05-18T04:37:32.326Z,10.81
2018-05-18T04:40:35.626Z,10.87
2018-05-18T04:43:38.940Z,10.94
2018-05-18T04:46:42.257Z,11.05
2018-05-18T04:49:46.317Z,11.12
2018-05-18T04:52:49.625Z,11.18
2018-05-18T04:55:52.938Z,11.25
2018-05-18T04:58:56.285Z,11.32
2018-05-18T05:02:00.339Z,11.41
2018-05-18T05:05:03.624Z,11.44
2018-05-18T05:08:06.958Z,11.53
2018-05-18T05:11:11.038Z,11.60
2018-05-18T05:14:14.341Z,11.73
2018-05-18T05:17:17.657Z,11.81
2018-05-18T05:20:20.961Z,11.95
2018-05-18T05:23:25.058Z,12.04
2018-05-18T05:26:28.374Z,12.19
2018-05-18T05:29:32.448Z,12.27
2018-05-18T05:32:35.753Z,12.34
2018-05-18T05:35:39.073Z,12.38
2018-05-18T05:38:42.377Z,12.45
2018-05-18T05:41:46.471Z,12.54
2018-05-18T05:44:49.781Z,12.63
2018-05-18T05:47:53.174Z,12.68
2018-05-18T05:50:56.409Z,12.80
2018-05-18T05:53:59.724Z,12.91
2018-05-18T05:57:03.033Z,12.95
2018-05-18T06:00:06.357Z,13.02
2018-05-18T06:03:09.673Z,13.12
2018-05-18T06:06:13.764Z,13.22
2018-05-18T06:09:17.068Z,13.37
2018-05-18T06:12:20.458Z,13.47
2018-05-18T06:15:23.701Z,13.55
2018-05-18T06:18:27.013Z,13.70
2018-05-18T06:21:30.317Z,13.83
2018-05-18T06:24:33.649Z,13.91
2018-05-18T06:27:36.957Z,14.02
2018-05-18T06:30:40.269Z,14.10
2018-05-18T06:33:44.345Z,14.17
2018-05-18T06:36:47.663Z,14.31
2018-05-18T06:39:51.734Z,14.43
2018-05-18T06:42:55.112Z,14.52
2018-05-18T06:45:58.429Z,14.65
2018-05-18T06:49:01.737Z,14.75
2018-05-18T06:52:05.040Z,14.91
2018-05-18T06:55:08.352Z,15.01
2018-05-18T06:58:11.658Z,15.10
2018-05-18T07:01:15.742Z,15.12
2018-05-18T07:04:19.052Z,15.10
2018-05-18T07:07:22.381Z,15.12
2018-05-18T07:10:25.753Z,15.24
2018-05-18T07:13:29.028Z,15.38
2018-05-18T07:16:32.330Z,15.45
2018-05-18T07:19:36.441Z,15.60
2018-05-18T07:22:39.745Z,15.67
2018-05-18T07:25:43.065Z,15.79
2018-05-18T07:28:47.141Z,15.92
2018-05-18T07:31:50.467Z,16.06
2018-05-18T07:34:53.777Z,16.19
2018-05-18T07:37:57.122Z,16.27
2018-05-18T07:41:00.433Z,16.32
2018-05-18T07:44:03.744Z,16.31
2018-05-18T07:47:07.062Z,16.34
2018-05-18T07:50:11.174Z,16.43
2018-05-18T07:53:14.460Z,16.52
2018-05-18T07:56:17.790Z,16.68
2018-05-18T07:59:21.139Z,16.73
2018-05-18T08:02:24.439Z,16.69
2018-05-18T08:05:27.755Z,16.45
2018-05-18T08:08:31.877Z,16.49
2018-05-18T08:11:35.955Z,16.59
2018-05-18T08:14:39.287Z,16.53
2018-05-18T08:17:43.678Z,16.47
2018-05-18T08:20:46.722Z,16.57
2018-05-18T08:23:50.041Z,16.70
2018-05-18T08:27:11.142Z,16.69
2018-05-18T08:30:14.441Z,16.84
2018-05-18T08:33:17.770Z,16.86
2018-05-18T08:36:21.084Z,16.84
2018-05-18T08:39:24.404Z,16.87
2018-05-18T08:42:28.493Z,16.89
2018-05-18T08:45:31.818Z,16.83
2018-05-18T08:48:35.137Z,16.65
2018-05-18T08:51:38.441Z,16.80
2018-05-18T08:54:41.762Z,16.95
2018-05-18T08:57:45.090Z,17.20
2018-05-18T09:00:49.205Z,17.18
2018-05-18T09:03:53.290Z,16.87
2018-05-18T09:06:56.637Z,16.98
2018-05-18T09:09:59.940Z,16.99
2018-05-18T09:13:03.276Z,17.02
2018-05-18T09:16:06.591Z,17.08
2018-05-18T09:19:10.692Z,17.22
2018-05-18T09:22:14.007Z,17.28
2018-05-18T09:25:17.328Z,17.28
2018-05-18T09:28:20.642Z,17.38
2018-05-18T09:31:23.969Z,17.36
2018-05-18T09:34:27.279Z,17.39
2018-05-18T09:37:30.605Z,17.34
2018-05-18T09:40:33.933Z,17.20
2018-05-18T09:43:37.246Z,17.11
2018-05-18T09:46:40.565Z,17.35
2018-05-18T09:49:43.882Z,17.42
2018-05-18T09:52:47.970Z,17.27
2018-05-18T09:55:51.285Z,17.15
2018-05-18T09:58:54.618Z,17.24
2018-05-18T10:01:57.924Z,17.36
2018-05-18T10:05:01.248Z,17.34
2018-05-18T10:08:04.578Z,17.34
2018-05-18T10:11:07.896Z,17.10
2018-05-18T10:14:11.233Z,16.90
2018-05-18T10:17:14.532Z,17.00
2018-05-18T10:20:17.860Z,17.07
2018-05-18T10:23:21.187Z,17.14
2018-05-18T10:26:24.500Z,17.18
2018-05-18T10:29:27.817Z,17.26
2018-05-18T10:32:31.130Z,17.25
2018-05-18T10:35:34.449Z,17.31
2018-05-18T10:38:38.527Z,17.41
2018-05-18T10:41:41.852Z,17.34
2018-05-18T10:44:45.178Z,17.33
2018-05-18T10:47:48.489Z,17.18
2018-05-18T10:50:51.812Z,17.22
2018-05-18T10:53:55.140Z,17.25
2018-05-18T10:56:58.442Z,17.18
2018-05-18T11:00:02.534Z,17.24
2018-05-18T11:03:05.849Z,17.35
2018-05-18T11:06:09.274Z,17.52
2018-05-18T11:09:12.585Z,17.68
2018-05-18T11:12:15.909Z,17.55
2018-05-18T11:15:19.223Z,17.35
2018-05-18T11:18:22.536Z,17.28
2018-05-18T11:21:25.849Z,17.36
2018-05-18T11:24:29.939Z,17.41
2018-05-18T11:27:33.250Z,17.27
2018-05-18T11:30:37.335Z,17.20
2018-05-18T11:33:40.675Z,17.16
2018-05-18T11:36:44.749Z,17.18
2018-05-18T11:39:48.089Z,17.15
2018-05-18T11:42:51.393Z,17.17
2018-05-18T11:45:54.750Z,17.24
2018-05-18T11:48:58.067Z,17.24
2018-05-18T11:52:02.148Z,17.25
2018-05-18T11:55:05.466Z,17.18
2018-05-18T11:58:09.552Z,17.18
2018-05-18T12:01:12.864Z,17.21
2018-05-18T12:04:16.182Z,17.20
2018-05-18T12:07:20.276Z,17.26
2018-05-18T12:10:23.594Z,17.27
2018-05-18T12:13:27.674Z,17.28
2018-05-18T12:16:31.013Z,17.40
2018-05-18T12:19:35.094Z,17.56
2018-05-18T12:22:38.515Z,17.56
2018-05-18T12:25:42.593Z,17.63
2018-05-18T12:28:45.925Z,17.53
2018-05-18T12:31:49.244Z,17.40
2018-05-18T12:34:52.581Z,17.25
2018-05-18T12:37:55.890Z,17.30
2018-05-18T12:40:59.229Z,17.34
2018-05-18T12:44:03.297Z,17.30
2018-05-18T12:47:06.618Z,17.26
2018-05-18T12:50:09.929Z,17.27
2018-05-18T12:53:14.022Z,17.38
2018-05-18T12:56:17.329Z,17.24
2018-05-18T12:59:20.648Z,17.27
2018-05-18T13:02:23.965Z,17.35
2018-05-18T13:05:27.288Z,17.38
2018-05-18T13:08:30.601Z,17.45
2018-05-18T13:11:33.921Z,17.35
2018-05-18T13:14:38.010Z,17.34
2018-05-18T13:17:41.349Z,17.31
2018-05-18T13:20:44.662Z,17.22
2018-05-18T13:23:47.984Z,17.06
2018-05-18T13:26:51.285Z,16.88
2018-05-18T13:29:54.610Z,16.81
2018-05-18T13:32:57.936Z,16.84
2018-05-18T13:36:01.284Z,16.79
2018-05-18T13:39:04.606Z,16.90
2018-05-18T13:42:08.685Z,16.95
2018-05-18T13:45:12.008Z,16.90
2018-05-18T13:48:15.321Z,16.88
2018-05-18T13:51:19.419Z,17.01
2018-05-18T13:54:22.729Z,17.05
2018-05-18T13:57:26.814Z,16.97
2018-05-18T14:00:30.109Z,16.88
2018-05-18T14:03:33.427Z,17.00
2018-05-18T14:06:37.512Z,17.09
2018-05-18T14:09:40.815Z,17.22
2018-05-18T14:12:44.142Z,17.25
2018-05-18T14:15:48.217Z,17.28
2018-05-18T14:18:51.561Z,17.21
2018-05-18T14:21:54.865Z,17.32
2018-05-18T14:24:58.183Z,17.18
2018-05-18T14:28:01.481Z,17.19
2018-05-18T14:31:04.795Z,17.28
2018-05-18T14:34:08.106Z,17.26
2018-05-18T14:37:11.452Z,17.24
2018-05-18T14:40:14.764Z,17.20
2018-05-18T14:43:18.073Z,17.24
2018-05-18T14:46:21.373Z,17.09
2018-05-18T14:49:24.691Z,17.08
2018-05-18T14:52:28.034Z,17.28
2018-05-18T14:55:31.349Z,17.41
2018-05-18T14:58:34.692Z,17.36
2018-05-18T15:01:38.018Z,17.44
2018-05-18T15:04:42.110Z,17.23
2018-05-18T15:07:45.422Z,16.91
2018-05-18T15:10:49.527Z,16.96
2018-05-18T15:13:53.593Z,16.92
2018-05-18T15:16:56.976Z,17.21
2018-05-18T15:20:00.238Z,17.21
2018-05-18T15:23:04.304Z,17.22
2018-05-18T15:26:07.626Z,17.34
2018-05-18T15:29:10.937Z,17.21
2018-05-18T15:32:14.255Z,17.12
2018-05-18T15:35:17.562Z,17.27
2018-05-18T15:38:21.093Z,17.46
2018-05-18T15:41:24.427Z,17.54
2018-05-18T15:44:27.732Z,17.36
2018-05-18T15:47:31.809Z,17.39
2018-05-18T15:50:35.121Z,17.31
2018-05-18T15:53:38.505Z,17.34
2018-05-18T15:56:41.825Z,17.21
2018-05-18T15:59:45.140Z,17.18
2018-05-18T16:02:48.461Z,17.12
2018-05-18T16:05:51.777Z,16.94
2018-05-18T16:08:55.093Z,16.65
2018-05-18T16:11:58.417Z,16.40
2018-05-18T16:15:02.499Z,16.41
2018-05-18T16:18:05.821Z,16.43
2018-05-18T16:21:09.142Z,16.37
2018-05-18T16:24:13.226Z,15.98
2018-05-18T16:27:16.539Z,15.86
2018-05-18T16:30:21.408Z,15.91
2018-05-18T16:33:24.774Z,15.80
2018-05-18T16:36:28.083Z,15.68
2018-05-18T16:39:31.390Z,15.49
2018-05-18T16:42:34.711Z,15.09
2018-05-18T16:45:38.021Z,15.02
2018-05-18T16:48:41.347Z,14.97
2018-05-18T16:51:45.428Z,14.94
2018-05-18T16:54:48.775Z,14.87
2018-05-18T16:57:52.851Z,14.92
2018-05-18T17:00:56.170Z,14.99
2018-05-18T17:04:00.239Z,14.97
2018-05-18T17:07:03.574Z,14.90
2018-05-18T17:10:06.881Z,14.72
2018-05-18T17:13:10.966Z,14.45
2018-05-18T17:16:14.298Z,14.30
2018-05-18T17:19:17.596Z,14.29
2018-05-18T17:22:21.721Z,14.25
2018-05-18T17:25:25.031Z,14.09
2018-05-18T17:28:28.390Z,14.06
2018-05-18T17:31:31.698Z,14.04
2018-05-18T17:34:35.779Z,14.01
2018-05-18T17:37:39.107Z,13.83
2018-05-18T17:40:42.409Z,13.81
2018-05-18T17:43:46.497Z,13.81
2018-05-18T17:46:49.817Z,13.79
2018-05-18T17:49:53.169Z,13.73
2018-05-18T17:52:56.483Z,13.63
2018-05-18T17:55:59.823Z,13.62
2018-05-18T17:59:03.124Z,13.66
2018-05-18T18:02:06.442Z,13.67
2018-05-18T18:05:09.765Z,13.68
2018-05-18T18:08:13.118Z,13.61
2018-05-18T18:11:16.428Z,13.60
2018-05-18T18:14:19.777Z,13.58
2018-05-18T18:17:23.859Z,13.54
2018-05-18T18:20:28.030Z,13.41
2018-05-18T18:23:32.101Z,13.34
2018-05-18T18:26:35.448Z,13.27
2018-05-18T18:29:38.771Z,13.22
2018-05-18T18:32:42.107Z,13.22
2018-05-18T18:35:45.500Z,13.20
2018-05-18T18:38:49.615Z,13.12
2018-05-18T18:41:52.932Z,13.04
2018-05-18T18:44:57.054Z,12.96
2018-05-18T18:48:01.139Z,12.94
2018-05-18T18:51:04.462Z,12.96
2018-05-18T18:54:08.556Z,12.95
2018-05-18T18:57:11.879Z,12.95
2018-05-18T19:00:15.961Z,12.96
2018-05-18T19:03:19.318Z,12.93
2018-05-18T19:06:22.631Z,12.91
2018-05-18T19:09:25.970Z,12.87
2018-05-18T19:12:30.053Z,12.84
2018-05-18T19:15:33.449Z,12.77
2018-05-18T19:18:36.767Z,12.72
2018-05-18T19:21:40.105Z,12.60
2018-05-18T19:24:43.414Z,12.53
2018-05-18T19:27:46.762Z,12.53
2018-05-18T19:30:50.073Z,12.51
2018-05-18T19:33:54.158Z,12.39
2018-05-18T19:36:57.485Z,12.37
2018-05-18T19:40:01.690Z,12.35
2018-05-18T19:43:05.017Z,12.42
2018-05-18T19:46:08.353Z,12.46
2018-05-18T19:49:11.649Z,12.41
2018-05-18T19:52:14.985Z,12.40
2018-05-18T19:55:19.078Z,12.43
2018-05-18T19:58:22.402Z,12.45
2018-05-18T20:01:25.720Z,12.42
2018-05-18T20:04:29.091Z,12.39
2018-05-18T20:07:33.166Z,12.38
2018-05-18T20:10:36.748Z,12.39
2018-05-18T20:13:40.071Z,12.39
2018-05-18T20:16:43.398Z,12.38
2018-05-18T20:19:46.746Z,12.37
2018-05-18T20:22:50.048Z,12.36
2018-05-18T20:25:53.360Z,12.36
2018-05-18T20:28:56.681Z,12.34
2018-05-18T20:31:59.985Z,12.33
2018-05-18T20:35:04.082Z,12.36
2018-05-18T20:38:07.412Z,12.39
2018-05-18T20:41:11.493Z,12.38
2018-05-18T20:44:14.798Z,12.34
2018-05-18T20:47:18.129Z,12.35
2018-05-18T20:50:21.441Z,12.33
2018-05-18T20:53:24.777Z,12.29
2018-05-18T20:56:28.089Z,12.26
2018-05-18T20:59:31.406Z,12.30
2018-05-18T21:02:35.489Z,12.32
2018-05-18T21:05:38.842Z,12.30
2018-05-18T21:08:42.137Z,12.24
2018-05-18T21:11:45.461Z,12.21
2018-05-18T21:14:48.778Z,12.18
2018-05-18T21:17:52.117Z,12.13
2018-05-18T21:20:55.424Z,12.19
2018-05-18T21:23:58.778Z,12.16
2018-05-18T21:27:02.085Z,12.16
2018-05-18T21:30:06.181Z,12.20
2018-05-18T21:33:09.500Z,12.19
2018-05-18T21:36:12.808Z,12.18
2018-05-18T21:39:16.890Z,12.16
2018-05-18T21:42:20.194Z,12.16
2018-05-18T21:45:24.285Z,12.14
2018-05-18T21:48:27.594Z,12.11
2018-05-18T21:51:30.917Z,12.09
2018-05-18T21:54:35.005Z,12.07
2018-05-18T21:57:38.341Z,12.10
2018-05-18T22:00:41.645Z,12.07
2018-05-18T22:03:44.965Z,12.06
2018-05-18T22:06:48.266Z,12.03
2018-05-18T22:09:51.582Z,11.98
2018-05-18T22:12:54.902Z,12.00
2018-05-18T22:15:59.014Z,11.95
2018-05-18T22:19:03.090Z,11.90
2018-05-18T22:22:06.420Z,11.91
2018-05-18T22:25:09.739Z,11.93
2018-05-18T22:28:13.062Z,11.92
2018-05-18T22:31:16.403Z,11.82
2018-05-18T22:34:19.713Z,11.85
2018-05-18T22:37:23.808Z,11.82
2018-05-18T22:40:27.129Z,11.78
2018-05-18T22:43:31.210Z,11.78
2018-05-18T22:46:34.521Z,11.80
2018-05-18T22:49:37.853Z,11.87
2018-05-18T22:52:41.178Z,11.88
2018-05-18T22:55:44.510Z,11.81
2018-05-18T22:58:47.823Z,11.78
2018-05-18T23:01:51.938Z,11.76
2018-05-18T23:04:55.250Z,11.76
2018-05-18T23:07:58.574Z,11.77
2018-05-18T23:11:01.883Z,11.74
2018-05-18T23:14:05.203Z,11.69
2018-05-18T23:17:08.522Z,11.70
2018-05-18T23:20:12.634Z,11.71
2018-05-18T23:23:15.942Z,11.74
2018-05-18T23:26:20.031Z,11.71
2018-05-18T23:29:23.349Z,11.75
2018-05-18T23:32:27.428Z,11.72
2018-05-18T23:35:30.745Z,11.68
2018-05-18T23:38:34.061Z,11.73
2018-05-18T23:41:38.158Z,11.68
2018-05-18T23:44:41.487Z,11.72
2018-05-18T23:47:44.801Z,11.65
2018-05-18T23:50:48.113Z,11.59
2018-05-18T23:53:51.424Z,11.61
2018-05-18T23:56:54.749Z,11.61
2018-05-18T23:59:58.826Z,11.60
